^^
Grace C. Lehan Memorial Weather Station Historical Data
Daily Summary for May 22, 2021 Units:  English    Metric   Both
Daily Weekly Monthly Yearly
  High: Low: Average:
Temperature: 40.2 °F 20.6 °F 30.5 °F
Dew Point: 36.8 °F 13 °F 24.9 °F
Humidity: 96.6% 69% 80%
Wind Speed: 5.7mph 0mph 0.5mph
Wind Gust: 16mph - -
Wind- - SSW
Pressure: 30.40 in 29.62 in -
Precipitation: 0.36 in    
 
 
Tabular Data for May 22, 2021
Time Temperature Dew Point Pressure Wind Wind Speed Wind Gust Humidity Rainfall Rate (Hourly) solar
00:04 21.1 °F 13.5 °F 30.40 in Calm     71.7% 0.00 in 0 W/m2
00:09 21.1 °F 13.5 °F 30.40 in Calm     72% 0.00 in 0 W/m2
00:14 21.1 °F 13.5 °F 30.40 in Calm     72% 0.00 in 0 W/m2
00:19 21.1 °F 13.5 °F 30.40 in Calm     72% 0.00 in 0 W/m2
00:24 21.1 °F 13.5 °F 30.40 in Calm     72% 0.00 in 0 W/m2
00:29 21.2 °F 13.6 °F 30.40 in Calm     72% 0.00 in 0 W/m2
00:34 21.2 °F 13.6 °F 30.39 in Calm     72% 0.00 in 0 W/m2
00:39 21.2 °F 13.6 °F 30.40 in Calm     72% 0.00 in 0 W/m2
00:44 21 °F 13.4 °F 30.40 in Calm     72% 0.00 in 0 W/m2
00:49 20.7 °F 13.2 °F 30.40 in Calm     72% 0.00 in 0 W/m2
00:54 20.6 °F 13.2 °F 30.40 in Calm     72.5% 0.00 in 0 W/m2
00:59 20.6 °F 13 °F 30.40 in Calm     72% 0.00 in 0 W/m2
01:04 20.6 °F 13 °F 30.40 in Calm     72% 0.00 in 0 W/m2
01:09 20.7 °F 13.1 °F 30.40 in Calm     72% 0.00 in 0 W/m2
01:14 20.7 °F 13.1 °F 30.40 in Calm     72% 0.00 in 0 W/m2
01:19 20.8 °F 13.2 °F 30.40 in Calm     72% 0.00 in 0 W/m2
01:24 21 °F 13.4 °F 30.39 in Calm     72% 0.00 in 0 W/m2
01:29 21.1 °F 13.5 °F 30.39 in Calm     72% 0.00 in 0 W/m2
01:34 21 °F 13.4 °F 30.39 in Calm     72% 0.00 in 0 W/m2
01:39 20.9 °F 13.3 °F 30.39 in Calm     72% 0.00 in 0 W/m2
01:44 20.8 °F 13.4 °F 30.39 in Calm     72.5% 0.00 in 0 W/m2
01:49 20.8 °F 13.5 °F 30.38 in Calm     73% 0.00 in 0 W/m2
01:54 20.9 °F 13.6 °F 30.38 in Calm     73% 0.00 in 0 W/m2
01:59 21 °F 13.7 °F 30.38 in Calm     73% 0.00 in 0 W/m2
02:04 21.1 °F 13.7 °F 30.38 in Calm     72.5% 0.00 in 0 W/m2
02:09 21.3 °F 13.8 °F 30.38 in Calm     72.4% 0.00 in 0 W/m2
02:14 21.4 °F 14.1 °F 30.37 in Calm     73% 0.00 in 0 W/m2
02:19 21.5 °F 14.2 °F 30.38 in Calm     73% 0.00 in 0 W/m2
02:24 21.5 °F 14.2 °F 30.37 in Calm     73% 0.00 in 0 W/m2
02:29 21.6 °F 14.3 °F 30.37 in Calm     73% 0.00 in 0 W/m2
02:34 21.7 °F 14.6 °F 30.37 in Calm     73.8% 0.00 in 0 W/m2
02:39 21.8 °F 14.7 °F 30.37 in Calm     73.7% 0.00 in 0 W/m2
02:44 21.9 °F 14.5 °F 30.37 in Calm     73% 0.00 in 0 W/m2
02:49 21.9 °F 14.9 °F 30.36 in Calm     73.9% 0.00 in 0 W/m2
02:54 22 °F 15 °F 30.36 in Calm     74% 0.00 in 0 W/m2
02:59 22 °F 15 °F 30.36 in Calm     74% 0.00 in 0 W/m2
03:04 22 °F 15 °F 30.35 in Calm     74% 0.00 in 0 W/m2
03:09 22 °F 15 °F 30.35 in Calm     74% 0.00 in 0 W/m2
03:14 22 °F 15 °F 30.35 in Calm     74% 0.00 in 0 W/m2
03:19 22.1 °F 15 °F 30.35 in Calm     74% 0.00 in 0 W/m2
03:24 22.1 °F 15.1 °F 30.35 in Calm     74% 0.00 in 0 W/m2
03:29 22.1 °F 15.1 °F 30.35 in Calm     74% 0.00 in 0 W/m2
03:34 22.1 °F 15.1 °F 30.34 in Calm     74% 0.00 in 0 W/m2
03:39 22.1 °F 15.1 °F 30.33 in Calm     74% 0.00 in 0 W/m2
03:44 22.1 °F 15.1 °F 30.33 in Calm     74% 0.00 in 0 W/m2
03:49 22.2 °F 15.2 °F 30.32 in Calm     74% 0.00 in 0 W/m2
03:54 22.3 °F 15.2 °F 30.32 in Calm     73.9% 0.00 in 0 W/m2
03:59 22.4 °F 15.2 °F 30.31 in Calm     73.3% 0.00 in 0 W/m2
04:04 22.5 °F 15.3 °F 30.31 in Calm     73.5% 0.00 in 0 W/m2
04:09 22.5 °F 15.5 °F 30.31 in Calm     74% 0.00 in 0 W/m2
04:14 22.6 °F 15.5 °F 30.31 in Calm     74% 0.00 in 0 W/m2
04:19 22.6 °F 15.6 °F 30.31 in Calm     74% 0.00 in 0 W/m2
04:24 22.6 °F 15.6 °F 30.31 in Calm     74% 0.00 in 0 W/m2
04:29 22.6 °F 15.5 °F 30.31 in Calm     73.8% 0.00 in 0 W/m2
04:34 22.7 °F 15.7 °F 30.30 in Calm     74% 0.00 in 0 W/m2
04:39 22.9 °F 15.8 °F 30.30 in Calm     74% 0.00 in 0 W/m2
04:44 23 °F 16 °F 30.29 in Calm     74% 0.00 in 0 W/m2
04:49 23.2 °F 16.2 °F 30.29 in Calm     74% 0.00 in 0 W/m2
04:54 23.4 °F 16.4 °F 30.29 in Calm     74% 0.00 in 0 W/m2
04:59 23.6 °F 16.5 °F 30.29 in Calm     74% 0.00 in 0 W/m2
05:04 23.7 °F 16.6 °F 30.29 in Calm     74% 0.00 in 0 W/m2
05:09 23.8 °F 16.8 °F 30.28 in Calm     74.4% 0.00 in 0 W/m2
05:14 23.9 °F 17.1 °F 30.28 in Calm     75% 0.00 in 0 W/m2
05:19 24 °F 17.4 °F 30.27 in Calm     75.5% 0.00 in 0 W/m2
05:24 24.1 °F 17.4 °F 30.27 in Calm     75% 0.00 in 0 W/m2
05:29 24.3 °F 17.5 °F 30.27 in Calm     74.7% 0.00 in 0 W/m2
05:34 24.5 °F 17.4 °F 30.26 in Calm     74% 0.00 in 0 W/m2
05:39 24.6 °F 17.5 °F 30.26 in Calm     74% 0.00 in 0 W/m2
05:44 24.7 °F 17.6 °F 30.26 in Calm     74% 0.00 in 0 W/m2
05:49 24.8 °F 17.9 °F 30.27 in Calm     74.8% 0.00 in 0 W/m2
05:54 24.8 °F 18 °F 30.27 in Calm     75% 0.00 in 0 W/m2
05:59 24.8 °F 18 °F 30.26 in Calm     75% 0.00 in 0 W/m2
06:04 24.8 °F 18 °F 30.26 in Calm     75% 0.00 in 0 W/m2
06:09 24.7 °F 17.9 °F 30.26 in Calm     75% 0.00 in 0 W/m2
06:14 24.7 °F 17.7 °F 30.26 in Calm     74.3% 0.00 in 0 W/m2
06:19 24.7 °F 17.9 °F 30.26 in Calm     75% 0.00 in 0 W/m2
06:24 24.8 °F 18.1 °F 30.25 in Calm     75.3% 0.00 in 0 W/m2
06:29 25 °F 18.5 °F 30.25 in Calm     76% 0.00 in 0 W/m2
06:34 25.2 °F 18.9 °F 30.25 in Calm     76.5% 0.00 in 0 W/m2
06:39 25.3 °F 18.9 °F 30.25 in Calm     76% 0.00 in 0 W/m2
06:44 25.4 °F 18.9 °F 30.25 in Calm     76% 0.00 in 0 W/m2
06:49 25.5 °F 19 °F 30.25 in Calm     76% 0.00 in 0 W/m2
06:54 25.6 °F 19.1 °F 30.24 in Calm     76% 0.00 in 7 W/m2
06:59 25.7 °F 19.4 °F 30.25 in Calm     76.8% 0.00 in 11 W/m2
07:04 25.8 °F 19.6 °F 30.25 in Calm     77% 0.00 in 14 W/m2
07:09 25.8 °F 19.6 °F 30.24 in Calm     77% 0.00 in 16 W/m2
07:14 26 °F 19.8 °F 30.24 in Calm     77.1% 0.00 in 23 W/m2
07:19 26.1 °F 20.2 °F 30.24 in Calm     78% 0.00 in 25 W/m2
07:24 26.2 °F 20.1 °F 30.23 in Calm     77.2% 0.00 in 30 W/m2
07:29 26.3 °F 20.1 °F 30.23 in Calm     77% 0.00 in 32 W/m2
07:34 26.5 °F 20.3 °F 30.23 in Calm     77% 0.00 in 44 W/m2
07:39 26.7 °F 20.4 °F 30.23 in Calm     77% 0.00 in 49 W/m2
07:44 26.9 °F 20.7 °F 30.23 in Calm     77% 0.00 in 47 W/m2
07:49 27.2 °F 20.9 °F 30.22 in Calm     77% 0.00 in 49 W/m2
07:54 27.5 °F 21.2 °F 30.22 in Calm     77% 0.00 in 60 W/m2
07:59 27.7 °F 21.3 °F 30.22 in Calm     76.5% 0.00 in 84 W/m2
08:00 27.8 °F 21.2 °F 30.21 in Calm     76% 0.00 in 84 W/m2
08:09 28.2 °F 21.6 °F 30.21 in Calm     75.9% 0.00 in 95 W/m2
08:14 28.4 °F 21.5 °F 30.21 in Calm     75% 0.00 in 104 W/m2
08:19 28.6 °F 21.6 °F 30.21 in Calm     74.9% 0.00 in 105 W/m2
08:24 28.8 °F 21.5 °F 30.21 in Calm     74% 0.00 in 163 W/m2
08:29 29 °F 21.8 °F 30.21 in Calm     74% 0.00 in 155 W/m2
08:34 29.4 °F 22.3 °F 30.20 in Calm     74.5% 0.00 in 162 W/m2
08:39 29.8 °F 22.6 °F 30.20 in Calm     74.3% 0.00 in 156 W/m2
08:44 30.2 °F 22.8 °F 30.20 in Calm     73.7% 0.00 in 148 W/m2
08:49 30.4 °F 22.8 °F 30.19 in Calm     73% 0.00 in 220 W/m2
08:54 30.8 °F 23.3 °F 30.19 in West 0.3 mph 2 mph 73.6% 0.00 in 211 W/m2
08:59 31.2 °F 23.9 °F 30.19 in Calm   2 mph 74% 0.00 in 185 W/m2
09:04 31.7 °F 24.3 °F 30.18 in Calm   2 mph 73.8% 0.00 in 190 W/m2
09:09 32.2 °F 24.9 °F 30.18 in West 0.4 mph 3 mph 74% 0.00 in 153 W/m2
09:14 32.6 °F 25.1 °F 30.18 in West 0.2 mph 3 mph 73.5% 0.00 in 132 W/m2
09:19 32.9 °F 25.2 °F 30.17 in WSW 0.7 mph 4 mph 73% 0.00 in 149 W/m2
09:24 33.3 °F 25.3 °F 30.17 in SW 1 mph 5 mph 72.2% 0.00 in 146 W/m2
09:29 33.5 °F 25.5 °F 30.17 in Calm   5 mph 72% 0.00 in 139 W/m2
09:34 33.8 °F 25.5 °F 30.17 in SSW 0.6 mph 5 mph 71.4% 0.00 in 149 W/m2
09:39 33.9 °F 25.6 °F 30.16 in SSW 0.3 mph 5 mph 71.2% 0.00 in 213 W/m2
09:44 34.2 °F 26.1 °F 30.16 in SSW 0.1 mph 5 mph 72% 0.00 in 216 W/m2
09:49 34.6 °F 26.5 °F 30.15 in SSW 0.1 mph 5 mph 72% 0.00 in 216 W/m2
09:54 34.9 °F 26.8 °F 30.15 in SSW 0.6 mph 5 mph 72% 0.00 in 239 W/m2
09:59 35.4 °F 27.1 °F 30.15 in SSW 0.7 mph 5 mph 71.5% 0.00 in 216 W/m2
10:04 35.7 °F 27.2 °F 30.15 in SSW 1.2 mph 6 mph 71% 0.00 in 197 W/m2
10:09 36 °F 27.5 °F 30.14 in SW 1.8 mph 6 mph 71% 0.00 in 176 W/m2
10:14 36.2 °F 27.7 °F 30.14 in SSW 1.6 mph 6 mph 71% 0.00 in 258 W/m2
10:19 36.5 °F 28 °F 30.13 in SSW 1.8 mph 6 mph 71% 0.00 in 271 W/m2
10:24 36.8 °F 28.3 °F 30.12 in SW 1.2 mph 6 mph 71% 0.00 in 269 W/m2
10:29 37.1 °F 28.6 °F 30.12 in SSW 0.8 mph 6 mph 71% 0.00 in 297 W/m2
10:34 37.4 °F 28.8 °F 30.12 in SSW 0.7 mph 6 mph 71% 0.00 in 269 W/m2
10:39 37.7 °F 29.1 °F 30.12 in SSW 1.8 mph 6 mph 71% 0.00 in 269 W/m2
10:44 37.9 °F 29.3 °F 30.11 in South 0.7 mph 6 mph 71% 0.00 in 258 W/m2
10:49 38 °F 29.5 °F 30.10 in SSW 0.9 mph 6 mph 71% 0.00 in 287 W/m2
10:54 38.2 °F 29.6 °F 30.09 in South 2.9 mph 10 mph 70.8% 0.00 in 287 W/m2
10:59 38.3 °F 29.7 °F 30.08 in South 1.6 mph 10 mph 70.7% 0.00 in 274 W/m2
11:04 38.4 °F 29.9 °F 30.07 in South 1.7 mph 10 mph 71% 0.00 in 281 W/m2
11:09 38.6 °F 30 °F 30.06 in South 1.5 mph 7 mph 71% 0.00 in 330 W/m2
11:14 38.8 °F 29.8 °F 30.06 in South 4.2 mph 15 mph 70% 0.00 in 322 W/m2
11:19 38.8 °F 29.9 °F 30.06 in South 1.4 mph 15 mph 70% 0.00 in 283 W/m2
11:24 38.9 °F 30.3 °F 30.06 in South 2.7 mph 15 mph 71% 0.00 in 265 W/m2
11:29 39.1 °F 30.4 °F 30.05 in South 4 mph 15 mph 70.8% 0.00 in 294 W/m2
11:34 39.1 °F 30.3 °F 30.05 in South 5.1 mph 15 mph 70.4% 0.00 in 236 W/m2
11:39 39.2 °F 30.6 °F 30.05 in SSW 3.5 mph 11 mph 71% 0.00 in 243 W/m2
11:44 39.3 °F 30.7 °F 30.04 in SSW 3.7 mph 11 mph 71% 0.00 in 229 W/m2
11:49 39.5 °F 30.9 °F 30.03 in South 2.8 mph 11 mph 71% 0.01 in 204 W/m2
11:54 39.6 °F 31 °F 30.03 in SSW 3.4 mph 11 mph 71% 0.01 in 227 W/m2
11:59 39.7 °F 31 °F 30.02 in South 5 mph 13 mph 70.7% 0.02 in 223 W/m2
12:09 40 °F 30.7 °F 30.02 in South 5 mph 14 mph 69% 0.02 in 232 W/m2
12:14 40.1 °F 30.8 °F 30.02 in South 5.7 mph 16 mph 69% 0.02 in 227 W/m2
12:19 40.2 °F 30.9 °F 30.01 in South 3.7 mph 16 mph 69% 0.02 in 190 W/m2
12:24 40.2 °F 30.9 °F 30.01 in South 3.9 mph 16 mph 69% 0.02 in 149 W/m2
12:29 40.2 °F 30.9 °F 29.99 in South 2.6 mph 16 mph 69% 0.03 in 142 W/m2
12:34 40.1 °F 30.8 °F 29.99 in South 4.1 mph 16 mph 69.2% 0.03 in 102 W/m2
12:39 39.9 °F 31.2 °F 29.98 in SSW 5.6 mph 12 mph 70.8% 0.03 in 120 W/m2
12:44 39.5 °F 32 °F 29.98 in SSW 3 mph 12 mph 74.1% 0.03 in 120 W/m2
12:49 39 °F 32.3 °F 29.98 in South 4.9 mph 12 mph 76.6% 0.03 in 83 W/m2
12:54 38.5 °F 32.6 °F 29.97 in South 3.8 mph 12 mph 79.1% 0.03 in 120 W/m2
12:59 38.1 °F 32.9 °F 29.97 in SSW 2.4 mph 12 mph 81.3% 0.03 in 111 W/m2
13:04 37.8 °F 33.1 °F 29.96 in SSW 1.1 mph 12 mph 83% 0.03 in 88 W/m2
13:09 37.5 °F 33.3 °F 29.95 in South 2.6 mph 7 mph 84.5% 0.01 in 98 W/m2
13:14 37.3 °F 33.4 °F 29.95 in South 0.7 mph 7 mph 85.7% 0.01 in 100 W/m2
13:19 37 °F 33.4 °F 29.94 in South 2 mph 7 mph 86.7% 0.01 in 91 W/m2
13:24 36.9 °F 33.5 °F 29.93 in South 0.7 mph 7 mph 87.6% 0.02 in 100 W/m2
13:29 36.7 °F 33.6 °F 29.92 in South 1.6 mph 7 mph 88.2% 0.02 in 77 W/m2
13:34 36.6 °F 33.7 °F 29.92 in South 0.6 mph 7 mph 89% 0.02 in 91 W/m2
13:39 36.6 °F 33.8 °F 29.91 in South 0.9 mph 9 mph 89.4% 0.02 in 88 W/m2
13:44 36.6 °F 33.9 °F 29.90 in South 1.7 mph 9 mph 90% 0.03 in 79 W/m2
13:49 36.6 °F 33.9 °F 29.89 in South 0.1 mph 9 mph 90% 0.03 in 70 W/m2
13:54 36.6 °F 34.1 °F 29.89 in Calm   9 mph 90.6% 0.03 in 77 W/m2
13:59 36.5 °F 34.1 °F 29.88 in South 0.4 mph 9 mph 91% 0.04 in 88 W/m2
14:04 36.4 °F 34 °F 29.88 in Calm   9 mph 91% 0.04 in 65 W/m2
14:09 36.2 °F 33.9 °F 29.88 in Calm   1 mph 91% 0.04 in 54 W/m2
14:14 36.1 °F 33.7 °F 29.87 in South 0.3 mph 2 mph 91% 0.05 in 60 W/m2
14:19 35.9 °F 33.6 °F 29.87 in Calm   2 mph 91% 0.05 in 49 W/m2
14:24 35.7 °F 33.4 °F 29.86 in Calm   2 mph 91% 0.05 in 54 W/m2
14:29 35.6 °F 33.4 °F 29.86 in Calm   2 mph 91.8% 0.05 in 56 W/m2
14:34 35.4 °F 33.3 °F 29.85 in Calm   2 mph 91.9% 0.05 in 47 W/m2
14:39 35.3 °F 33.2 °F 29.84 in Calm     92% 0.03 in 58 W/m2
14:44 35.2 °F 33.1 °F 29.84 in Calm   1 mph 92% 0.04 in 63 W/m2
14:49 35.1 °F 33 °F 29.83 in Calm   1 mph 92% 0.04 in 49 W/m2
14:54 35 °F 32.9 °F 29.83 in Calm   1 mph 92% 0.04 in 42 W/m2
14:59 34.9 °F 32.8 °F 29.83 in Calm   1 mph 92% 0.04 in 40 W/m2
15:04 34.8 °F 32.8 °F 29.82 in Calm   1 mph 92.4% 0.04 in 39 W/m2
15:09 34.7 °F 32.6 °F 29.81 in Calm     92% 0.02 in 35 W/m2
15:14 34.6 °F 32.8 °F 29.81 in Calm     92.9% 0.02 in 32 W/m2
15:19 34.6 °F 32.8 °F 29.80 in Calm     93% 0.02 in 32 W/m2
15:24 34.5 °F 32.7 °F 29.79 in Calm     93% 0.02 in 32 W/m2
15:29 34.5 °F 32.7 °F 29.78 in Calm     93% 0.02 in 35 W/m2
15:34 34.5 °F 32.7 °F 29.77 in Calm     93% 0.02 in 33 W/m2
15:39 34.6 °F 32.8 °F 29.77 in Calm     93% 0.01 in 21 W/m2
15:44 34.6 °F 32.8 °F 29.77 in Calm     93% 0.02 in 18 W/m2
15:49 34.7 °F 32.9 °F 29.76 in Calm     93% 0.03 in 14 W/m2
15:54 34.7 °F 32.9 °F 29.75 in Calm     93.2% 0.04 in 14 W/m2
15:59 34.7 °F 33 °F 29.75 in Calm     93.2% 0.06 in 16 W/m2
16:00 34.7 °F 32.9 °F 29.74 in Calm     93% 0.06 in 11 W/m2
16:09 34.7 °F 33.2 °F 29.73 in Calm     94% 0.07 in 19 W/m2
16:14 34.8 °F 33.2 °F 29.72 in Calm     93.9% 0.08 in 18 W/m2
16:19 34.8 °F 33.2 °F 29.71 in Calm     93.6% 0.09 in 16 W/m2
16:24 34.9 °F 33.3 °F 29.71 in Calm     94% 0.10 in 12 W/m2
16:29 34.9 °F 33.3 °F 29.71 in Calm     94% 0.11 in 11 W/m2
16:34 34.9 °F 33.3 °F 29.70 in Calm     94% 0.13 in 11 W/m2
16:39 34.8 °F 33.3 °F 29.70 in Calm     94% 0.14 in 9 W/m2
16:44 34.8 °F 33.3 °F 29.70 in Calm     94% 0.15 in 7 W/m2
16:49 34.8 °F 33.3 °F 29.69 in Calm     94% 0.16 in 7 W/m2
16:54 34.8 °F 33.3 °F 29.69 in Calm     94% 0.17 in 7 W/m2
16:59 34.8 °F 33.3 °F 29.69 in Calm     94% 0.18 in 5 W/m2
17:04 34.8 °F 33.3 °F 29.68 in Calm     94% 0.18 in 0 W/m2
17:09 34.8 °F 33.3 °F 29.68 in Calm     94% 0.14 in 0 W/m2
17:14 34.8 °F 33.3 °F 29.68 in Calm     94% 0.14 in 0 W/m2
17:19 34.8 °F 33.3 °F 29.67 in Calm     94% 0.15 in 0 W/m2
17:24 34.8 °F 33.3 °F 29.67 in Calm     94% 0.16 in 0 W/m2
17:29 34.8 °F 33.3 °F 29.67 in Calm     94% 0.16 in 0 W/m2
17:34 34.8 °F 33.3 °F 29.67 in Calm     94% 0.16 in 0 W/m2
17:39 34.8 °F 33.3 °F 29.66 in Calm     94% 0.11 in 0 W/m2
17:44 34.8 °F 33.3 °F 29.66 in Calm     94% 0.12 in 0 W/m2
17:49 34.9 °F 33.3 °F 29.66 in Calm     94% 0.12 in 0 W/m2
17:54 35 °F 33.4 °F 29.66 in Calm     94% 0.13 in 0 W/m2
17:59 35.1 °F 33.5 °F 29.66 in Calm     94% 0.13 in 0 W/m2
18:04 35.2 °F 33.8 °F 29.65 in Calm     94.4% 0.13 in 0 W/m2
18:09 35.6 °F 34.3 °F 29.65 in Calm     94.8% 0.07 in 0 W/m2
18:14 36.1 °F 34.8 °F 29.65 in Calm     95% 0.07 in 0 W/m2
18:19 36.5 °F 35.2 °F 29.65 in Calm     95% 0.07 in 0 W/m2
18:24 36.7 °F 35.8 °F 29.65 in Calm     96.6% 0.07 in 0 W/m2
18:29 36.8 °F 35.5 °F 29.64 in SSW 0.3 mph 4 mph 95% 0.07 in 0 W/m2
18:34 37 °F 35.7 °F 29.64 in SW 1 mph 9 mph 95% 0.07 in 0 W/m2
18:39 37.4 °F 36.1 °F 29.64 in SW 0.2 mph 9 mph 95% 0.05 in 0 W/m2
18:44 37.6 °F 36.3 °F 29.64 in SW 0.3 mph 9 mph 95% 0.05 in 0 W/m2
18:49 37.9 °F 36.6 °F 29.63 in WSW 1.3 mph 11 mph 95% 0.05 in 0 W/m2
18:54 38 °F 36.7 °F 29.63 in WSW 0.9 mph 11 mph 95% 0.05 in 0 W/m2
18:59 38.1 °F 36.8 °F 29.62 in SW 0.8 mph 11 mph 95% 0.05 in 0 W/m2
19:04 38 °F 36.7 °F 29.63 in SW 1.5 mph 11 mph 95% 0.05 in 0 W/m2
19:09 38 °F 36.7 °F 29.63 in West 0.9 mph 11 mph 95% 0.02 in 0 W/m2
19:14 37.9 °F 36.6 °F 29.63 in WSW 1 mph 11 mph 95% 0.02 in 0 W/m2
19:19 37.8 °F 36.5 °F 29.63 in Calm   11 mph 95% 0.02 in 0 W/m2
19:24 37.7 °F 36.4 °F 29.62 in SW 1.2 mph 12 mph 95% 0.02 in 0 W/m2
19:28 37.7 °F 36.4 °F 29.62 in SW 0.3 mph 12 mph 95% 0.03 in 0 W/m2
Hartford County Weather
Compliments of Weather Underground - 2 mb